Time;durP1;ratioP1;P1;durP2;ratioP2;P2;SDS_P1;SDS_P2;PMS_P1;PMS_P2;Temp;Humidity;BMP_temperature;BMP_pressure;BME280_temperature;BME280_humidity;BME280_pressure;Samples;Min_cycle;Max_cycle;Signal;HPM_P1;HPM_P2
2022/07/29 00:01:42;;;;;;;2.60;1.70;;;;;;;23.87;100.00;96244.03;5047381;28;20218;-45
2022/07/29 00:04:11;;;;;;;4.45;1.38;;;;;;;23.31;100.00;96250.72;5046268;28;20080;-43
2022/07/29 00:06:41;;;;;;;1.70;1.33;;;;;;;23.01;100.00;96256.91;5046814;28;20080;-44
2022/07/29 00:09:11;;;;;;;1.98;1.42;;;;;;;23.29;100.00;96247.41;5044217;28;20076;-45
2022/07/29 00:11:39;;;;;;;1.83;1.52;;;;;;;23.17;100.00;96256.28;5046209;28;20084;-49
2022/07/29 00:14:08;;;;;;;2.00;1.63;;;;;;;23.25;100.00;96251.63;5046551;28;20452;-46
2022/07/29 00:16:37;;;;;;;2.10;1.50;;;;;;;23.58;100.00;96243.84;5046026;28;20081;-57
2022/07/29 00:19:05;;;;;;;1.98;1.40;;;;;;;23.50;100.00;96241.47;5047535;28;20080;-53
2022/07/29 00:21:35;;;;;;;2.13;1.30;;;;;;;23.65;100.00;96231.09;5045838;28;20084;-52
2022/07/29 00:24:04;;;;;;;2.78;1.63;;;;;;;24.06;100.00;96225.88;5048171;28;20088;-49
2022/07/29 00:26:33;;;;;;;2.40;1.30;;;;;;;23.91;100.00;96229.03;5044723;28;20076;-50
2022/07/29 00:29:03;;;;;;;2.83;1.40;;;;;;;23.75;100.00;96235.94;5046592;28;20087;-45
2022/07/29 00:31:52;;;;;;;2.03;1.35;;;;;;;23.82;100.00;96231.28;5044022;28;20103;-55
2022/07/29 00:37:06;;;;;;;2.30;1.23;;;;;;;23.88;100.00;96227.66;5044338;28;20080;-52
2022/07/29 00:39:35;;;;;;;1.58;1.45;;;;;;;23.72;100.00;96227.53;5047186;28;20080;-50
2022/07/29 00:42:05;;;;;;;2.30;1.50;;;;;;;23.17;100.00;96233.94;5043236;28;20076;-47
2022/07/29 00:44:37;;;;;;;1.63;1.48;;;;;;;23.31;100.00;96234.56;5046935;28;20081;-48
2022/07/29 00:47:06;;;;;;;2.13;1.55;;;;;;;23.30;100.00;96230.25;5046648;28;20089;-48
2022/07/29 00:49:35;;;;;;;2.83;1.85;;;;;;;23.24;100.00;96237.34;5046546;28;20758;-49
2022/07/29 00:52:06;;;;;;;2.30;1.63;;;;;;;23.20;100.00;96255.81;5047029;28;20041;-53
2022/07/29 00:54:35;;;;;;;2.53;1.77;;;;;;;23.46;100.00;96245.69;5046090;28;20056;-47
2022/07/29 00:57:13;;;;;;;2.10;1.63;;;;;;;23.21;100.00;96237.81;5046488;28;20077;-49
2022/07/29 00:59:42;;;;;;;2.60;1.63;;;;;;;23.30;100.00;96232.94;5042612;28;20076;-50
2022/07/29 01:02:10;;;;;;;3.00;1.90;;;;;;;23.17;100.00;96237.44;5045835;28;20092;-51
2022/07/29 01:04:38;;;;;;;1.85;1.63;;;;;;;23.05;100.00;96239.25;5029304;28;20060;-47
2022/07/29 01:07:08;;;;;;;2.38;1.80;;;;;;;23.41;100.00;96234.81;5029992;28;20106;-47
2022/07/29 01:09:38;;;;;;;2.80;1.63;;;;;;;22.83;100.00;96225.47;5045059;28;20081;-51
2022/07/29 01:12:17;;;;;;;2.20;1.70;;;;;;;22.62;100.00;96221.41;5046658;28;20068;-53
2022/07/29 01:14:47;;;;;;;3.20;2.00;;;;;;;22.95;100.00;96214.78;5044295;28;20554;-51
2022/07/29 01:17:21;;;;;;;2.88;1.90;;;;;;;22.98;100.00;96215.16;5043057;28;20084;-47
2022/07/29 01:19:56;;;;;;;2.03;1.80;;;;;;;22.98;100.00;96209.78;5043131;28;20085;-49
2022/07/29 01:22:36;;;;;;;2.40;1.80;;;;;;;23.15;100.00;96207.25;5043600;28;20076;-59
2022/07/29 01:25:21;;;;;;;2.05;1.42;;;;;;;22.88;100.00;96216.72;5044674;28;20087;-54
2022/07/29 01:28:05;;;;;;;3.00;1.83;;;;;;;23.18;100.00;96225.63;5045457;28;20516;-47
2022/07/29 01:30:39;;;;;;;4.03;1.80;;;;;;;22.92;100.00;96217.94;5043436;28;20519;-47
2022/07/29 01:33:48;;;;;;;2.28;1.88;;;;;;;22.82;100.00;96231.91;5046341;28;20095;-51
2022/07/29 01:36:03;;;;;;;2.28;1.98;;;;;;;22.55;100.00;96225.25;5044772;28;20077;-54
2022/07/29 01:38:31;;;;;;;3.13;2.10;;;;;;;22.73;100.00;96222.50;5041959;28;20135;-52
2022/07/29 01:41:05;;;;;;;1.85;1.73;;;;;;;22.86;100.00;96208.09;5045449;28;20069;-47
2022/07/29 01:43:39;;;;;;;2.80;2.00;;;;;;;22.80;100.00;96209.00;5045221;28;20076;-53
2022/07/29 01:46:13;;;;;;;2.15;1.95;;;;;;;22.66;100.00;96201.09;5043826;28;20067;-48
2022/07/29 01:48:46;;;;;;;2.75;2.35;;;;;;;22.52;100.00;96197.75;5044642;28;20087;-50
2022/07/29 01:51:19;;;;;;;2.75;2.10;;;;;;;22.85;100.00;96184.91;5045092;28;20667;-51
2022/07/29 01:53:53;;;;;;;2.67;1.98;;;;;;;22.61;100.00;96187.53;5045721;28;20092;-49
2022/07/29 01:56:23;;;;;;;2.67;2.00;;;;;;;22.63;100.00;96187.28;5044728;28;20538;-47
2022/07/29 01:58:51;;;;;;;;;;;;;;;22.88;100.00;96177.22;5044971;28;20076;-51
2022/07/29 02:01:23;;;;;;;2.53;1.88;;;;;;;22.90;100.00;96179.69;5043228;28;19968;-51
2022/07/29 02:03:52;;;;;;;2.45;2.20;;;;;;;22.56;100.00;96181.19;5044860;28;20087;-49
2022/07/29 02:06:22;;;;;;;3.20;2.38;;;;;;;22.66;100.00;96187.66;5049106;28;20107;-47
2022/07/29 02:08:52;;;;;;;2.65;2.00;;;;;;;22.92;100.00;96183.81;5043866;28;20085;-50
2022/07/29 02:11:20;;;;;;;4.90;2.10;;;;;;;22.80;100.00;96187.47;5045854;28;20527;-50
2022/07/29 02:13:50;;;;;;;3.70;2.10;;;;;;;22.98;100.00;96188.25;5044550;28;20113;-47
2022/07/29 02:16:21;;;;;;;3.15;1.95;;;;;;;22.87;100.00;96180.13;5044855;28;20488;-52
2022/07/29 02:18:53;;;;;;;3.45;2.17;;;;;;;23.36;100.00;96168.22;5047130;28;20535;-57
2022/07/29 02:21:25;;;;;;;2.08;1.80;;;;;;;23.48;100.00;96167.44;5046531;28;20092;-48
2022/07/29 02:23:54;;;;;;;3.72;1.92;;;;;;;23.39;100.00;96172.31;5047830;28;20214;-46
2022/07/29 02:26:26;;;;;;;3.65;2.15;;;;;;;23.28;100.00;96162.38;5048281;28;20098;-49
2022/07/29 02:28:56;;;;;;;3.50;2.03;;;;;;;23.45;100.00;96156.06;5043966;28;20072;-48
2022/07/29 02:31:30;;;;;;;3.17;2.22;;;;;;;23.20;100.00;96158.16;5047547;28;20077;-60
2022/07/29 02:34:00;;;;;;;3.88;2.10;;;;;;;23.44;100.00;96149.06;5051971;28;20076;-48
2022/07/29 02:36:29;;;;;;;2.60;1.92;;;;;;;23.51;100.00;96140.06;5052235;28;20081;-48
2022/07/29 02:39:00;;;;;;;3.03;2.10;;;;;;;23.07;100.00;96144.91;5048773;28;20084;-53
2022/07/29 02:41:31;;;;;;;3.08;2.15;;;;;;;22.94;100.00;96145.94;5046278;28;20087;-47
2022/07/29 02:44:05;;;;;;;3.20;2.15;;;;;;;23.33;100.00;96149.88;5047353;28;20587;-52
2022/07/29 02:46:36;;;;;;;5.47;2.20;;;;;;;23.22;100.00;96138.03;5049998;28;20479;-51
2022/07/29 02:49:11;;;;;;;2.60;2.30;;;;;;;23.24;100.00;96150.44;5044306;28;20062;-47
2022/07/29 02:51:44;;;;;;;4.63;2.50;;;;;;;23.21;100.00;96155.22;5051854;28;20479;-54
2022/07/29 02:54:19;;;;;;;3.50;2.40;;;;;;;23.23;100.00;96144.25;5054533;28;20092;-45
2022/07/29 02:56:49;;;;;;;4.85;2.42;;;;;;;23.29;100.00;96148.69;5050588;28;20080;-48
2022/07/29 02:59:22;;;;;;;3.38;2.50;;;;;;;22.89;100.00;96153.84;5047427;28;20502;-47
2022/07/29 03:01:53;;;;;;;3.65;2.50;;;;;;;22.95;100.00;96158.31;5051825;28;20531;-53
2022/07/29 03:04:23;;;;;;;3.33;2.17;;;;;;;23.19;100.00;96153.81;5054426;28;20713;-47
2022/07/29 03:06:53;;;;;;;4.00;2.33;;;;;;;22.81;100.00;96149.59;5051836;28;20672;-50
2022/07/29 03:09:22;;;;;;;2.65;2.30;;;;;;;22.56;100.00;96165.06;5051533;28;20445;-49
2022/07/29 03:11:51;;;;;;;4.10;2.58;;;;;;;22.45;100.00;96163.97;5051381;28;20084;-47
2022/07/29 03:14:20;;;;;;;2.85;2.40;;;;;;;22.70;100.00;96161.13;5049017;28;20076;-51
2022/07/29 03:16:49;;;;;;;3.35;2.40;;;;;;;22.78;100.00;96171.59;5047284;28;20088;-54
2022/07/29 03:19:20;;;;;;;3.97;2.35;;;;;;;22.83;100.00;96163.66;5045631;28;20083;-54
2022/07/29 03:21:48;;;;;;;2.97;2.42;;;;;;;22.86;100.00;96167.75;5048665;28;20096;-48
2022/07/29 03:24:31;;;;;;;4.50;2.50;;;;;;;22.37;100.00;96162.41;5048229;28;20085;-54
2022/07/29 03:27:00;;;;;;;3.28;2.05;;;;;;;22.34;100.00;96165.56;5042200;28;20471;-51
2022/07/29 03:29:29;;;;;;;3.45;2.40;;;;;;;22.40;100.00;96158.44;5047439;28;20080;-48
2022/07/29 03:32:02;;;;;;;2.78;2.33;;;;;;;22.61;100.00;96159.81;5046079;28;20080;-48
2022/07/29 03:34:38;;;;;;;4.18;2.30;;;;;;;22.66;100.00;96159.97;5048209;28;20069;-51
2022/07/29 03:37:07;;;;;;;3.17;2.42;;;;;;;22.78;100.00;96168.91;5046072;28;20076;-51
2022/07/29 03:39:40;;;;;;;3.22;2.40;;;;;;;22.31;100.00;96165.19;5046613;28;20537;-54
2022/07/29 03:42:11;;;;;;;3.28;2.55;;;;;;;22.44;100.00;96163.16;5042760;28;20075;-50
2022/07/29 03:44:41;;;;;;;4.07;2.40;;;;;;;22.34;100.00;96162.88;5041370;28;20080;-47
2022/07/29 03:47:10;;;;;;;3.00;2.42;;;;;;;22.35;100.00;96159.13;5047503;28;20089;-48
2022/07/29 03:49:41;;;;;;;7.80;2.58;;;;;;;22.41;100.00;96157.41;5051363;28;20096;-49
2022/07/29 03:52:10;;;;;;;2.75;2.20;;;;;;;22.58;100.00;96157.59;5048557;28;20092;-48
2022/07/29 03:54:38;;;;;;;3.13;2.33;;;;;;;22.61;100.00;96165.19;5048935;28;20448;-52
2022/07/29 03:57:07;;;;;;;2.58;2.38;;;;;;;22.61;100.00;96163.34;5050469;28;20576;-46
2022/07/29 03:59:35;;;;;;;4.68;2.50;;;;;;;22.52;100.00;96165.50;5050457;28;20087;-55
2022/07/29 04:02:05;;;;;;;3.10;2.28;;;;;;;22.39;100.00;96164.88;5050071;28;20087;-47
2022/07/29 04:04:34;;;;;;;2.92;2.38;;;;;;;22.45;100.00;96170.16;5047933;28;20084;-53
2022/07/29 04:07:05;;;;;;;2.92;2.60;;;;;;;22.28;100.00;96164.56;5047496;28;20073;-47
2022/07/29 04:09:33;;;;;;;3.05;2.70;;;;;;;22.52;100.00;96172.75;5050161;28;20511;-46
2022/07/29 04:12:02;;;;;;;3.92;2.90;;;;;;;22.47;100.00;96180.66;5049911;28;20080;-55
2022/07/29 04:14:32;;;;;;;3.53;2.90;;;;;;;22.37;100.00;96177.72;5053384;28;20081;-44
2022/07/29 04:17:00;;;;;;;2.80;2.55;;;;;;;22.06;100.00;96182.19;5050339;28;20443;-50
2022/07/29 04:19:29;;;;;;;3.08;2.78;;;;;;;22.01;100.00;96179.31;5050362;28;20076;-49
2022/07/29 04:21:58;;;;;;;3.10;2.80;;;;;;;21.80;100.00;96178.72;5050222;28;20076;-51
2022/07/29 04:24:28;;;;;;;2.88;2.40;;;;;;;22.22;100.00;96178.09;5043278;28;20476;-51
2022/07/29 04:26:56;;;;;;;6.00;2.70;;;;;;;22.29;100.00;96178.81;5043430;28;20450;-46
2022/07/29 04:29:25;;;;;;;4.25;2.80;;;;;;;22.18;100.00;96183.09;5050095;28;20613;-47
2022/07/29 04:31:53;;;;;;;4.88;2.47;;;;;;;22.42;100.00;96181.34;5050034;28;20088;-50
2022/07/29 04:34:21;;;;;;;3.20;2.63;;;;;;;22.48;100.00;96187.69;5050244;28;20476;-52
2022/07/29 04:36:55;;;;;;;4.55;2.90;;;;;;;22.44;100.00;96190.03;5050009;28;20110;-54
2022/07/29 04:39:23;;;;;;;3.08;2.70;;;;;;;22.56;100.00;96191.94;5049756;28;20084;-52
2022/07/29 04:41:56;;;;;;;2.90;2.60;;;;;;;22.48;100.00;96196.56;5049921;28;20080;-52
2022/07/29 04:44:26;;;;;;;3.95;2.88;;;;;;;23.47;100.00;96193.53;5050159;28;20084;-51
2022/07/29 04:46:57;;;;;;;3.58;2.47;;;;;;;23.21;100.00;96190.19;5049987;28;20069;-54
2022/07/29 04:49:25;;;;;;;3.90;3.50;;;;;;;24.26;100.00;96183.22;5049608;28;20072;-47
2022/07/29 04:51:54;;;;;;;3.83;3.53;;;;;;;24.90;100.00;96179.59;5047024;28;20481;-57
2022/07/29 04:54:23;;;;;;;4.60;3.60;;;;;;;25.52;100.00;96183.13;5045248;28;20531;-49
2022/07/29 04:56:52;;;;;;;6.18;3.30;;;;;;;25.64;100.00;96185.75;5049336;28;20087;-54
2022/07/29 04:59:22;;;;;;;4.38;3.10;;;;;;;25.27;100.00;96190.81;5049450;28;20085;-60
2022/07/29 05:01:50;;;;;;;4.47;3.55;;;;;;;25.66;100.00;96183.63;5049439;28;20085;-49
2022/07/29 05:04:19;;;;;;;3.10;2.83;;;;;;;26.70;100.00;96174.78;5053296;28;20080;-48
2022/07/29 05:06:48;;;;;;;3.20;2.80;;;;;;;27.08;100.00;96183.84;5049837;28;20081;-51
2022/07/29 05:09:16;;;;;;;3.58;2.90;;;;;;;27.10;100.00;96184.38;5049583;28;20527;-46
2022/07/29 05:11:45;;;;;;;3.22;2.90;;;;;;;27.34;100.00;96186.78;5043037;28;20084;-52
2022/07/29 05:14:14;;;;;;;3.17;2.60;;;;;;;26.61;100.00;96189.81;5049310;28;20577;-59
2022/07/29 05:16:44;;;;;;;4.45;2.60;;;;;;;27.75;100.00;96187.94;5041677;28;20076;-53
2022/07/29 05:19:13;;;;;;;3.63;2.70;;;;;;;28.04;100.00;96193.81;5046779;28;20519;-51
2022/07/29 05:21:42;;;;;;;3.08;2.20;;;;;;;26.64;100.00;96185.81;5041314;28;20091;-48
2022/07/29 05:24:11;;;;;;;3.75;2.33;;;;;;;26.32;100.00;96193.75;5049171;28;20085;-51
2022/07/29 05:26:40;;;;;;;2.95;2.30;;;;;;;26.25;100.00;96191.22;5049396;28;20083;-51
2022/07/29 05:29:09;;;;;;;4.35;3.08;;;;;;;26.09;100.00;96192.94;5049105;28;20484;-54
2022/07/29 05:31:59;;;;;;;3.03;2.72;;;;;;;26.73;100.00;96193.19;5049121;28;20528;-51
2022/07/29 05:34:27;;;;;;;4.05;2.60;;;;;;;26.64;100.00;96189.31;5046445;28;20546;-48
2022/07/29 05:36:56;;;;;;;5.53;2.70;;;;;;;27.41;100.00;96199.03;5047753;28;20081;-48
2022/07/29 05:39:25;;;;;;;4.25;1.83;;;;;;;26.96;100.00;96202.91;5046787;28;20095;-52
2022/07/29 05:42:13;;;;;;;3.83;2.22;;;;;;;27.45;100.00;96199.34;5048027;28;20080;-51
2022/07/29 05:44:41;;;;;;;2.20;2.00;;;;;;;27.13;100.00;96205.56;5049020;28;20076;-55
2022/07/29 05:47:11;;;;;;;4.35;2.10;;;;;;;28.01;100.00;96202.50;5048119;28;20080;-56
2022/07/29 05:49:40;;;;;;;2.65;1.80;;;;;;;27.56;100.00;96198.34;5048571;28;20084;-54
2022/07/29 05:52:08;;;;;;;3.38;1.70;;;;;;;28.39;100.00;96198.69;5047134;28;20084;-49
2022/07/29 05:54:37;;;;;;;3.08;1.52;;;;;;;28.77;100.00;96202.09;5048889;28;20072;-47
2022/07/29 05:57:06;;;;;;;3.00;1.55;;;;;;;28.00;100.00;96216.31;5048324;28;20099;-48
2022/07/29 05:59:36;;;;;;;2.28;1.60;;;;;;;26.94;100.00;96215.06;5045728;28;20099;-51
2022/07/29 06:02:05;;;;;;;2.30;1.70;;;;;;;27.16;100.00;96224.00;5048465;28;20084;-47
2022/07/29 06:04:35;;;;;;;2.73;1.93;;;;;;;26.32;100.00;96226.19;5048123;28;20084;-44
2022/07/29 06:07:04;;;;;;;1.85;1.60;;;;;;;26.15;100.00;96224.38;5048625;28;20495;-46
2022/07/29 06:09:33;;;;;;;2.20;1.70;;;;;;;26.43;100.00;96228.78;5048252;28;20076;-45
2022/07/29 06:12:04;;;;;;;2.47;1.63;;;;;;;26.71;100.00;96224.28;5048716;28;20091;-47
2022/07/29 06:14:33;;;;;;;2.63;1.67;;;;;;;26.60;100.00;96226.06;5046348;28;20665;-45
2022/07/29 06:17:01;;;;;;;2.58;1.90;;;;;;;26.92;100.00;96223.44;5040323;28;20076;-50
2022/07/29 06:19:30;;;;;;;5.70;2.30;;;;;;;27.02;100.00;96225.44;5047830;28;20085;-55
2022/07/29 06:22:00;;;;;;;4.35;2.00;;;;;;;27.04;100.00;96222.47;5052836;28;20106;-45
2022/07/29 06:24:28;;;;;;;3.63;1.83;;;;;;;27.20;100.00;96227.81;5050233;28;20092;-49
2022/07/29 06:26:56;;;;;;;3.60;1.90;;;;;;;27.07;100.00;96224.69;5048603;28;20095;-47
2022/07/29 06:29:25;;;;;;;3.92;1.98;;;;;;;26.75;100.00;96228.13;5047694;28;20091;-48
2022/07/29 06:31:53;;;;;;;2.15;1.80;;;;;;;27.00;100.00;96230.28;5048152;28;20098;-47
2022/07/29 06:34:22;;;;;;;2.70;1.63;;;;;;;27.33;100.00;96231.22;5048152;28;20095;-48
2022/07/29 06:36:52;;;;;;;4.63;1.73;;;;;;;27.53;100.00;96220.56;5048452;28;20099;-47
2022/07/29 06:39:22;;;;;;;2.35;1.70;;;;;;;27.34;100.00;96227.41;5047919;28;20095;-57
2022/07/29 06:41:51;;;;;;;2.58;1.90;;;;;;;26.52;100.00;96223.78;5048034;28;20119;-48
2022/07/29 06:44:19;;;;;;;2.15;1.73;;;;;;;26.95;100.00;96225.66;5046970;28;20080;-45
2022/07/29 06:46:49;;;;;;;3.42;1.40;;;;;;;27.50;100.00;96223.78;5044500;28;20081;-48
2022/07/29 06:49:18;;;;;;;3.78;1.70;;;;;;;27.67;100.00;96229.88;5046661;28;20077;-48
2022/07/29 06:51:46;;;;;;;3.13;1.70;;;;;;;27.58;100.00;96225.19;5047962;28;20096;-46
2022/07/29 06:54:15;;;;;;;3.60;1.73;;;;;;;27.45;100.00;96226.44;5041709;28;20168;-49
2022/07/29 06:56:45;;;;;;;2.65;1.73;;;;;;;27.61;100.00;96222.78;5045120;28;20479;-52
2022/07/29 06:59:14;;;;;;;2.40;1.50;;;;;;;27.43;100.00;96223.19;5046607;28;20102;-53
2022/07/29 07:01:43;;;;;;;4.07;1.67;;;;;;;27.47;100.00;96228.88;5048225;28;20475;-46
2022/07/29 07:04:13;;;;;;;3.08;1.50;;;;;;;27.87;100.00;96223.00;5051701;28;20091;-51
2022/07/29 07:06:42;;;;;;;3.05;1.52;;;;;;;28.32;100.00;96218.94;5045342;28;20519;-53
2022/07/29 07:09:10;;;;;;;4.15;1.73;;;;;;;28.89;100.00;96228.16;5051314;28;20084;-48
2022/07/29 07:11:39;;;;;;;2.28;1.40;;;;;;;28.12;100.00;96236.72;5050612;28;20096;-45
2022/07/29 07:14:09;;;;;;;2.45;1.63;;;;;;;28.58;100.00;96230.75;5046050;28;20116;-44
2022/07/29 07:16:37;;;;;;;3.80;1.70;;;;;;;28.52;100.00;96229.91;5047569;28;20076;-45
2022/07/29 07:19:05;;;;;;;5.30;1.63;;;;;;;28.67;100.00;96231.91;5051443;28;20084;-44
2022/07/29 07:21:35;;;;;;;2.33;1.83;;;;;;;28.42;100.00;96232.56;5050422;28;20554;-46
2022/07/29 07:24:03;;;;;;;2.58;1.63;;;;;;;28.63;100.00;96231.59;5051468;28;20088;-54
2022/07/29 07:26:32;;;;;;;2.10;1.60;;;;;;;28.26;100.00;96242.50;5051604;28;20474;-47
2022/07/29 07:29:00;;;;;;;3.03;1.73;;;;;;;28.37;100.00;96233.34;5051420;28;20088;-52
2022/07/29 07:31:30;;;;;;;3.78;1.60;;;;;;;28.42;100.00;96237.19;5050593;28;20504;-48
2022/07/29 07:33:58;;;;;;;2.20;1.75;;;;;;;28.55;100.00;96234.00;5050964;28;20084;-55
2022/07/29 07:36:27;;;;;;;1.50;1.33;;;;;;;29.30;93.48;96229.91;5051537;28;20092;-50
2022/07/29 07:38:55;;;;;;;3.67;1.52;;;;;;;29.23;91.23;96232.09;5049030;28;20081;-48
2022/07/29 07:41:24;;;;;;;1.90;1.30;;;;;;;28.19;100.00;96238.41;5051078;28;20125;-51
2022/07/29 07:43:52;;;;;;;2.10;1.30;;;;;;;28.83;92.12;96220.00;5051332;28;20084;-51
2022/07/29 07:46:21;;;;;;;3.95;1.75;;;;;;;29.30;87.84;96223.66;5050921;28;20084;-47
2022/07/29 07:48:52;;;;;;;2.55;1.40;;;;;;;28.39;98.44;96223.09;5050901;28;20088;-43
2022/07/29 07:51:20;;;;;;;2.75;1.70;;;;;;;28.45;100.00;96225.81;5048314;28;20092;-49
2022/07/29 07:53:50;;;;;;;4.57;1.65;;;;;;;29.02;92.82;96222.25;5049796;28;20099;-45
2022/07/29 07:56:18;;;;;;;3.17;1.60;;;;;;;29.06;92.96;96216.03;5050969;28;20103;-46
2022/07/29 07:58:46;;;;;;;2.25;1.60;;;;;;;30.10;81.46;96217.69;5051041;28;20081;-46
2022/07/29 08:01:18;;;;;;;2.63;1.42;;;;;;;29.10;87.69;96219.81;5050097;28;20080;-47
2022/07/29 08:03:47;;;;;;;2.88;1.50;;;;;;;29.34;81.99;96222.03;5050587;28;20080;-44
2022/07/29 08:06:17;;;;;;;3.67;1.50;;;;;;;29.70;81.31;96217.47;5050754;28;20083;-49
2022/07/29 08:08:45;;;;;;;2.55;1.45;;;;;;;29.76;81.59;96221.81;5046964;28;20479;-47
2022/07/29 08:11:14;;;;;;;2.67;1.80;;;;;;;29.58;83.95;96225.06;5043933;28;20088;-51
2022/07/29 08:13:42;;;;;;;5.93;1.85;;;;;;;29.91;79.12;96220.19;5049478;28;20088;-49
2022/07/29 08:16:14;;;;;;;3.17;1.80;;;;;;;29.17;85.77;96210.63;5050542;28;20095;-47
2022/07/29 08:18:44;;;;;;;4.57;1.70;;;;;;;29.92;86.64;96213.66;5050453;28;20160;-46
2022/07/29 08:21:14;;;;;;;2.85;1.60;;;;;;;28.80;86.31;96217.00;5049793;28;20486;-48
2022/07/29 08:23:49;;;;;;;2.58;1.35;;;;;;;29.68;73.19;96221.56;5038335;28;20085;-49
2022/07/29 08:26:28;;;;;;;2.00;1.50;;;;;;;29.31;73.29;96222.56;5045307;28;20084;-51
2022/07/29 08:28:56;;;;;;;2.30;1.52;;;;;;;29.92;69.22;96217.19;5050265;28;20087;-45
2022/07/29 08:31:24;;;;;;;2.53;1.60;;;;;;;29.51;76.80;96219.88;5052024;28;20482;-49
2022/07/29 08:33:53;;;;;;;2.70;1.60;;;;;;;29.99;71.68;96220.44;5050585;28;20080;-48
2022/07/29 08:36:21;;;;;;;2.15;1.60;;;;;;;29.75;70.54;96225.63;5050766;28;20665;-51
2022/07/29 08:38:53;;;;;;;3.40;1.85;;;;;;;29.63;70.25;96225.09;5042886;28;20084;-54
2022/07/29 08:41:22;;;;;;;3.33;1.50;;;;;;;29.95;69.43;96230.22;5050293;28;20088;-51
2022/07/29 08:43:51;;;;;;;2.08;1.70;;;;;;;29.48;70.44;96225.03;5050660;28;20072;-54
2022/07/29 08:46:39;;;;;;;2.83;1.73;;;;;;;29.74;72.11;96226.72;5050814;28;20072;-47
2022/07/29 08:49:08;;;;;;;2.85;1.58;;;;;;;30.15;71.06;96225.88;5049598;28;20076;-50
2022/07/29 08:51:37;;;;;;;2.67;1.52;;;;;;;30.80;64.47;96217.78;5049423;28;20410;-56
2022/07/29 08:54:19;;;;;;;3.50;1.55;;;;;;;29.49;71.13;96216.63;5044171;28;20076;-52
2022/07/29 08:56:50;;;;;;;2.67;1.90;;;;;;;30.91;63.27;96217.47;5050079;28;20088;-50
2022/07/29 08:59:20;;;;;;;4.57;1.67;;;;;;;30.77;57.94;96208.28;5050105;28;20116;-51
2022/07/29 09:01:53;;;;;;;3.80;1.52;;;;;;;30.98;58.19;96223.44;5049800;28;20593;-51
2022/07/29 09:04:26;;;;;;;2.22;1.67;;;;;;;30.98;59.21;96217.19;5048433;28;20091;-51
2022/07/29 09:06:55;;;;;;;2.90;1.70;;;;;;;31.38;55.88;96227.03;5043505;28;20084;-51
2022/07/29 09:09:25;;;;;;;3.28;2.00;;;;;;;31.43;59.76;96213.38;5049155;28;20077;-54
2022/07/29 09:11:55;;;;;;;7.03;1.98;;;;;;;31.63;56.21;96214.31;5049642;28;20081;-50
2022/07/29 09:14:24;;;;;;;1.70;1.60;;;;;;;31.36;60.18;96223.78;5049941;28;20087;-49
2022/07/29 09:16:54;;;;;;;2.50;1.83;;;;;;;31.10;55.08;96216.81;5050077;28;20087;-51
2022/07/29 09:19:28;;;;;;;3.08;1.70;;;;;;;31.06;59.25;96213.84;5049198;28;20077;-50
2022/07/29 09:22:00;;;;;;;3.10;1.67;;;;;;;31.85;53.40;96216.56;5049752;28;20112;-53
2022/07/29 09:24:50;;;;;;;5.78;1.70;;;;;;;32.24;48.79;96221.94;5049443;28;20135;-56
2022/07/29 09:27:21;;;;;;;2.35;1.70;;;;;;;31.62;50.48;96218.13;5048692;28;20086;-51
2022/07/29 09:30:00;;;;;;;4.50;1.90;;;;;;;31.16;53.27;96219.25;5049066;28;20088;-50
2022/07/29 09:32:29;;;;;;;2.53;1.80;;;;;;;31.26;49.87;96218.38;5046805;28;20085;-52
2022/07/29 09:35:20;;;;;;;3.53;1.67;;;;;;;33.25;43.15;96204.66;5045037;28;20147;-52
2022/07/29 09:37:49;;;;;;;2.80;1.92;;;;;;;32.63;45.47;96203.81;5049196;28;20081;-49
2022/07/29 09:40:22;;;;;;;2.47;1.60;;;;;;;31.63;53.01;96211.59;5048927;28;20080;-47
2022/07/29 09:42:52;;;;;;;3.45;2.00;;;;;;;32.47;48.52;96208.63;5048908;28;20100;-52
2022/07/29 09:45:29;;;;;;;2.53;1.70;;;;;;;31.42;53.97;96206.28;5043127;28;20095;-54
2022/07/29 09:48:00;;;;;;;2.15;1.80;;;;;;;31.26;53.93;96206.66;5048674;28;20089;-51
2022/07/29 09:50:39;;;;;;;3.25;1.73;;;;;;;31.37;53.70;96206.31;5049157;28;20076;-49
2022/07/29 09:53:09;;;;;;;2.47;1.75;;;;;;;32.12;53.02;96205.16;5048773;28;20178;-55
2022/07/29 09:55:49;;;;;;;2.05;1.88;;;;;;;31.07;54.07;96211.94;5044271;28;20077;-49
2022/07/29 09:58:21;;;;;;;6.45;2.03;;;;;;;31.20;53.17;96201.22;5043314;28;20085;-53
2022/07/29 10:00:50;;;;;;;3.45;1.83;;;;;;;31.71;53.81;96205.50;5044242;28;20475;-47
2022/07/29 10:03:20;;;;;;;3.60;1.92;;;;;;;31.74;54.58;96199.50;5041457;28;20084;-48
2022/07/29 10:06:05;;;;;;;2.25;1.90;;;;;;;32.04;61.13;96203.88;5048818;28;20080;-45
2022/07/29 10:08:34;;;;;;;4.70;2.20;;;;;;;32.03;54.76;96198.69;5048853;28;20087;-51
2022/07/29 10:11:12;;;;;;;2.45;2.22;;;;;;;31.99;54.66;96205.84;5048337;28;20084;-46
2022/07/29 10:13:41;;;;;;;3.42;2.25;;;;;;;31.56;56.53;96208.38;5047874;28;20096;-51
2022/07/29 10:16:10;;;;;;;2.72;2.28;;;;;;;31.04;62.03;96207.03;5048344;28;20084;-53
2022/07/29 10:18:41;;;;;;;3.30;2.38;;;;;;;30.60;65.83;96211.34;5048725;28;20088;-47
2022/07/29 10:21:10;;;;;;;4.03;2.37;;;;;;;30.78;63.35;96206.38;5048610;28;20550;-56
2022/07/29 10:23:59;;;;;;;3.60;2.30;;;;;;;30.61;70.90;96206.69;5044414;28;20084;-47
2022/07/29 10:26:30;;;;;;;;;;;;;;;29.83;73.95;96202.50;5048904;28;20108;-46
2022/07/29 10:28:59;;;;;;;3.22;2.80;;;;;;;29.68;74.38;96206.06;5044810;28;19967;-53
2022/07/29 10:31:30;;;;;;;3.85;2.63;;;;;;;30.63;70.44;96204.53;5039938;28;20112;-44
2022/07/29 10:34:05;;;;;;;3.60;2.70;;;;;;;30.13;76.98;96217.16;5048433;28;20083;-45
2022/07/29 10:36:46;;;;;;;2.90;2.60;;;;;;;30.52;69.17;96209.16;5048612;28;20080;-45
2022/07/29 10:39:24;;;;;;;6.45;2.55;;;;;;;31.06;67.65;96207.59;5052157;28;20092;-51
2022/07/29 10:42:18;;;;;;;2.97;2.45;;;;;;;30.71;70.61;96204.75;5049115;28;20076;-46
2022/07/29 10:44:56;;;;;;;4.82;2.63;;;;;;;31.11;60.88;96207.53;5052283;28;20076;-48
2022/07/29 10:47:27;;;;;;;4.22;2.78;;;;;;;30.78;66.26;96211.81;5052295;28;20081;-45
2022/07/29 10:50:00;;;;;;;3.60;2.60;;;;;;;31.13;62.86;96208.09;5045259;28;20088;-51
2022/07/29 10:52:54;;;;;;;2.80;2.45;;;;;;;30.55;64.82;96205.91;5048713;28;20528;-45
2022/07/29 10:55:33;;;;;;;4.32;2.60;;;;;;;31.38;60.34;96207.13;5051744;28;20107;-51
2022/07/29 10:58:23;;;;;;;3.28;2.05;;;;;;;30.54;71.55;96201.56;5045987;28;20088;-48
2022/07/29 11:00:53;;;;;;;4.53;2.40;;;;;;;31.58;60.67;96198.78;5046905;28;20103;-55
2022/07/29 11:03:46;;;;;;;2.88;2.47;;;;;;;31.50;65.66;96196.69;5051463;28;20502;-45
2022/07/29 11:06:18;;;;;;;4.45;2.65;;;;;;;31.75;64.56;96197.56;5036384;28;20045;-49
2022/07/29 11:09:19;;;;;;;5.28;2.70;;;;;;;31.90;58.76;96195.56;5045456;28;20092;-50
2022/07/29 11:12:05;;;;;;;4.72;2.80;;;;;;;32.15;56.57;96190.94;5051379;28;20076;-49
2022/07/29 11:14:58;;;;;;;4.68;3.08;;;;;;;31.58;53.58;96196.06;5045933;28;20069;-46
2022/07/29 11:17:27;;;;;;;2.80;2.50;;;;;;;31.86;59.97;96197.19;5051771;28;20543;-54
2022/07/29 11:20:36;;;;;;;3.55;2.70;;;;;;;32.07;49.94;96188.84;5050864;28;20138;-52
2022/07/29 11:23:20;;;;;;;5.05;3.20;;;;;;;33.03;50.58;96183.34;5051084;28;20087;-50
2022/07/29 11:26:15;;;;;;;3.70;2.47;;;;;;;32.97;53.42;96193.56;5048453;28;20053;-47
2022/07/29 11:28:56;;;;;;;4.00;2.90;;;;;;;32.69;55.41;96187.09;5050936;28;20064;-50
2022/07/29 11:31:35;;;;;;;4.07;2.92;;;;;;;32.18;58.26;96197.75;5051165;28;20065;-50
2022/07/29 11:34:17;;;;;;;3.30;2.65;;;;;;;33.06;56.28;96185.50;5051489;28;20092;-52
2022/07/29 11:37:24;;;;;;;3.15;2.50;;;;;;;32.64;55.54;96181.66;5045265;28;20084;-46
2022/07/29 11:40:18;;;;;;;6.80;3.30;;;;;;;32.64;51.75;96178.13;5045334;28;20075;-50
2022/07/29 11:42:50;;;;;;;4.35;2.85;;;;;;;32.04;55.60;96183.97;5051140;28;20068;-49
2022/07/29 11:45:27;;;;;;;3.75;2.88;;;;;;;31.67;53.57;96177.19;5051542;28;20076;-47
2022/07/29 11:48:19;;;;;;;3.85;2.80;;;;;;;31.53;53.32;96170.78;5050193;28;20084;-47
2022/07/29 11:51:00;;;;;;;3.80;2.85;;;;;;;31.74;51.29;96174.94;5048214;28;20076;-51
2022/07/29 11:53:30;;;;;;;6.38;2.33;;;;;;;31.14;46.23;96177.03;5049060;28;20657;-53
2022/07/29 11:56:00;;;;;;;;;;;;;;;31.73;46.41;96178.78;5047017;28;20107;-52